Abel, Alabama
Current Conditions -  °F | °C
As of 4:53 PM on Saturday 20 Dec 2014 (Local Time) from KANB Reporting Station
Overcast Overcast  
Wind Chill:   Ceiling: 4100
Heat Index:   Visibility: 10mi
Dew Point:   Wind: 3mph
Humidity: 74%   Direction: 20°NNE
Pressure: 30.18"   Gusts: NA
Location:  33.4483°N, 85.6826°W
Report Text: KANB 202253Z AUTO 02003KT 10SM OVC041 09/05 A3018 RMK AO2 SLP226 T00940050
Loading
Personal Weather Stations






























Interactive Weather Map New forecast layout! Learn more

10-Day Weather Forecast

Advertisements
Track Severe Weather on mobile